Time;durP1;ratioP1;P1;durP2;ratioP2;P2;SDS_P1;SDS_P2;PMS_P1;PMS_P2;Temp;Humidity;BMP_temperature;BMP_pressure;BME280_temperature;BME280_humidity;BME280_pressure;Samples;Min_cycle;Max_cycle;Signal;HPM_P1;HPM_P2
2022/01/14 00:05:59;;;;;;;26.10;18.30;;;;;;;1.94;93.14;100281.16;432707;1271;142991;-57
2022/01/14 00:16:06;;;;;;;24.70;15.80;;;;;;;2.01;92.87;100270.52;430355;1271;146231;-57
2022/01/14 00:36:38;;;;;;;;;;;;;;;2.13;92.82;100267.38;432102;1271;131222;-55
2022/01/14 00:46:46;;;;;;;26.40;16.70;;;;;;;2.15;92.65;100262.85;431519;1272;177634;-55
2022/01/14 00:57:13;;;;;;;22.90;15.00;;;;;;;2.12;92.68;100246.48;434875;1272;142660;-56
2022/01/14 01:07:19;;;;;;;22.70;14.70;;;;;;;2.06;92.65;100244.36;433163;1272;142723;-56
2022/01/14 01:17:25;;;;;;;19.10;14.20;;;;;;;2.07;92.59;100237.61;430060;1273;142315;-55
2022/01/14 01:27:37;;;;;;;21.50;14.40;;;;;;;2.13;92.65;100231.27;431872;1273;200847;-55
2022/01/14 01:37:43;;;;;;;18.10;12.60;;;;;;;2.18;92.74;100214.95;430918;1271;141175;-55
2022/01/14 01:47:50;;;;;;;15.90;11.80;;;;;;;2.20;92.61;100205.58;430487;1271;141715;-56
2022/01/14 01:57:56;;;;;;;13.10;11.70;;;;;;;2.20;92.60;100194.70;429876;1271;142462;-55
2022/01/14 02:08:02;;;;;;;16.30;11.70;;;;;;;2.22;92.63;100178.24;432218;1271;143427;-56
2022/01/14 02:18:32;;;;;;;14.60;10.10;;;;;;;2.25;92.39;100158.64;430019;1271;142380;-57
2022/01/14 02:28:38;;;;;;;13.80;10.30;;;;;;;2.22;92.65;100133.14;432223;1270;143143;-56
2022/01/14 02:38:44;;;;;;;16.30;12.20;;;;;;;2.17;92.49;100117.52;434351;1271;144126;-56
2022/01/14 02:48:50;;;;;;;13.90;11.40;;;;;;;2.18;92.56;100110.62;429320;1271;142611;-54
2022/01/14 02:59:00;;;;;;;14.90;11.00;;;;;;;2.19;92.66;100109.55;431421;1271;142377;-55
2022/01/14 03:09:06;;;;;;;17.00;12.60;;;;;;;2.19;92.63;100101.09;430506;1271;141373;-55
2022/01/14 03:19:18;;;;;;;17.50;12.20;;;;;;;2.19;92.72;100090.03;433156;1271;142241;-57
2022/01/14 03:29:24;;;;;;;19.30;12.00;;;;;;;2.19;92.66;100078.98;434593;1271;142863;-56
2022/01/14 03:39:30;;;;;;;14.30;11.70;;;;;;;2.18;92.72;100067.77;431401;1271;143723;-54
2022/01/14 03:49:36;;;;;;;14.90;11.90;;;;;;;2.19;92.67;100040.45;432764;1270;141621;-56
2022/01/14 03:59:42;;;;;;;16.60;12.20;;;;;;;2.22;92.55;100016.56;432976;1271;142541;-55
2022/01/14 04:09:48;;;;;;;18.80;13.40;;;;;;;2.22;92.55;100008.60;431821;1271;143014;-57
2022/01/14 04:19:54;;;;;;;20.70;14.90;;;;;;;2.23;92.39;100015.83;431811;1271;143535;-58
2022/01/14 04:30:00;;;;;;;20.10;12.90;;;;;;;2.26;92.51;100025.27;432721;1271;141735;-58
2022/01/14 04:40:08;;;;;;;16.50;12.90;;;;;;;2.30;92.38;100027.09;432331;1271;142507;-56
2022/01/14 04:50:15;;;;;;;19.00;13.70;;;;;;;2.34;92.02;100017.14;430582;1271;142314;-56
2022/01/14 05:00:23;;;;;;;19.60;12.60;;;;;;;2.36;92.05;100022.98;432985;1271;141966;-56
2022/01/14 05:10:36;;;;;;;;;;;;;;;2.37;92.05;100002.91;430993;1271;143908;-55
2022/01/14 05:20:42;;;;;;;14.80;10.80;;;;;;;2.36;91.99;99993.08;430901;1271;129537;-56
2022/01/14 05:30:48;;;;;;;19.20;11.90;;;;;;;2.35;92.08;99981.34;433647;1271;142798;-56
2022/01/14 05:40:54;;;;;;;14.60;10.50;;;;;;;2.35;92.05;99963.39;430686;1271;142873;-53
2022/01/14 05:51:00;;;;;;;13.90;11.00;;;;;;;2.34;92.27;99947.86;432478;1271;142374;-56
2022/01/14 06:01:06;;;;;;;12.90;10.00;;;;;;;2.35;92.23;99963.55;430334;1271;142240;-57
2022/01/14 06:11:12;;;;;;;15.70;11.00;;;;;;;2.34;92.30;99953.90;431290;1271;143783;-54
2022/01/14 06:21:18;;;;;;;12.70;9.70;;;;;;;2.37;92.20;99931.71;430780;1273;142255;-55
2022/01/14 06:31:24;;;;;;;12.00;9.00;;;;;;;2.35;92.21;99925.70;430106;1271;151294;-55
2022/01/14 06:41:30;;;;;;;11.70;9.70;;;;;;;2.34;92.29;99921.77;431345;1271;146890;-57
2022/01/14 06:51:35;;;;;;;13.20;9.40;;;;;;;2.34;92.42;99905.89;430423;1271;184557;-56
2022/01/14 07:01:41;;;;;;;10.30;9.10;;;;;;;2.34;92.44;99898.27;433207;1271;142229;-56
2022/01/14 07:11:53;;;;;;;12.60;9.50;;;;;;;2.37;92.53;99901.14;431267;1273;142352;-56
2022/01/14 07:21:59;;;;;;;10.40;9.30;;;;;;;2.35;92.66;99887.71;433877;1271;142462;-57
2022/01/14 07:32:05;;;;;;;13.30;10.10;;;;;;;2.35;92.80;99884.08;431849;1271;142001;-56
2022/01/14 07:42:11;;;;;;;11.70;8.60;;;;;;;2.39;92.72;99883.30;430964;1271;147486;-56
2022/01/14 07:52:17;;;;;;;16.00;11.20;;;;;;;2.42;92.77;99876.83;430520;1271;142003;-57
2022/01/14 08:02:25;;;;;;;12.80;10.70;;;;;;;2.44;92.70;99888.00;430797;1271;143794;-56
2022/01/14 08:12:31;;;;;;;13.80;11.20;;;;;;;2.46;92.82;99886.21;430891;1271;200910;-56
2022/01/14 08:22:37;;;;;;;12.00;10.00;;;;;;;2.48;92.78;99866.31;431236;1273;141609;-66
2022/01/14 08:32:43;;;;;;;13.40;9.20;;;;;;;2.53;92.92;99868.39;430813;1271;141930;-61
2022/01/14 08:42:52;;;;;;;13.10;10.80;;;;;;;2.58;92.91;99869.49;430493;1271;141484;-65
2022/01/14 08:52:59;;;;;;;11.20;9.00;;;;;;;2.60;93.00;99854.60;432365;1271;141526;-62
2022/01/14 09:03:06;;;;;;;13.20;10.60;;;;;;;2.61;92.81;99851.08;430577;1273;142112;-64
2022/01/14 09:13:13;;;;;;;12.40;9.60;;;;;;;2.57;92.60;99847.23;433328;1270;141800;-65
2022/01/14 09:23:25;;;;;;;12.00;9.60;;;;;;;2.59;92.80;99835.42;434613;1271;141838;-62
2022/01/14 09:33:30;;;;;;;11.10;7.50;;;;;;;2.64;92.96;99840.99;431862;1271;141743;-66
2022/01/14 09:43:39;;;;;;;11.00;9.20;;;;;;;2.68;92.74;99827.92;430787;1271;141098;-67
2022/01/14 09:53:45;;;;;;;10.00;8.90;;;;;;;2.73;92.74;99824.14;430703;1271;142287;-67
2022/01/14 10:03:56;;;;;;;11.20;9.50;;;;;;;2.78;92.52;99802.73;430833;1271;145338;-65
2022/01/14 10:14:09;;;;;;;10.30;9.10;;;;;;;2.82;92.65;99787.23;438154;1271;141561;-64
2022/01/14 10:24:15;;;;;;;11.70;9.90;;;;;;;2.88;92.42;99768.38;444588;1271;141450;-66
2022/01/14 10:34:21;;;;;;;12.00;9.40;;;;;;;2.93;92.47;99763.05;429830;1271;142201;-68
2022/01/14 10:44:34;;;;;;;11.90;10.60;;;;;;;2.91;92.56;99752.23;431406;1271;142672;-68
2022/01/14 10:54:44;;;;;;;12.10;9.40;;;;;;;3.00;92.68;99750.40;434765;1271;143408;-67
2022/01/14 11:05:08;;;;;;;11.50;8.80;;;;;;;3.10;92.72;99736.61;431138;1273;141450;-61
2022/01/14 11:15:15;;;;;;;11.80;9.30;;;;;;;3.15;92.58;99726.77;430836;1273;142200;-63
2022/01/14 11:25:23;;;;;;;13.10;9.60;;;;;;;3.23;92.54;99725.17;430659;1271;142165;-66
2022/01/14 11:35:33;;;;;;;12.10;9.00;;;;;;;3.27;92.75;99712.02;433425;1271;141618;-60
2022/01/14 11:45:56;;;;;;;11.40;9.40;;;;;;;3.31;92.80;99700.31;430585;1270;196296;-63
2022/01/14 11:56:05;;;;;;;8.00;7.20;;;;;;;3.33;92.68;99700.58;436561;1272;142575;-60
2022/01/14 12:06:13;;;;;;;8.40;7.50;;;;;;;3.32;92.48;99703.21;430813;1270;140906;-59
2022/01/14 12:27:24;;;;;;;7.40;5.90;;;;;;;3.36;92.45;99694.95;447531;1270;143441;-63
2022/01/14 12:37:33;;;;;;;7.60;6.60;;;;;;;3.38;92.08;99690.07;447474;1270;142580;-64
2022/01/14 12:47:42;;;;;;;6.00;5.30;;;;;;;3.40;91.96;99679.43;447524;1268;141615;-66
2022/01/14 12:57:48;;;;;;;7.60;5.00;;;;;;;3.40;91.83;99684.11;446790;1270;145425;-64
2022/01/14 13:07:54;;;;;;;6.70;5.70;;;;;;;3.33;91.81;99677.59;444904;1270;142369;-60
2022/01/14 13:18:03;;;;;;;8.20;5.60;;;;;;;3.33;92.00;99680.01;441061;1271;141251;-62
2022/01/14 13:28:09;;;;;;;5.90;5.10;;;;;;;3.35;91.73;99666.98;446772;1270;141596;-61
2022/01/14 13:38:18;;;;;;;10.60;6.00;;;;;;;3.40;92.02;99656.08;447467;1270;141867;-66
2022/01/14 13:48:26;;;;;;;6.10;5.50;;;;;;;3.44;91.94;99663.58;446586;1269;142255;-62
2022/01/14 13:58:32;;;;;;;6.70;4.90;;;;;;;3.48;91.84;99668.96;445895;1270;141316;-62
2022/01/14 14:08:49;;;;;;;6.70;5.50;;;;;;;3.51;91.59;99673.02;447543;1269;144728;-59
2022/01/14 14:18:59;;;;;;;8.40;5.30;;;;;;;3.56;91.80;99680.48;446653;1270;144703;-68
2022/01/14 14:29:24;;;;;;;7.20;4.90;;;;;;;3.61;91.88;99691.05;441222;1270;141984;-68
2022/01/14 14:39:30;;;;;;;6.40;5.40;;;;;;;3.64;91.35;99694.75;446767;1270;140811;-67
2022/01/14 14:49:37;;;;;;;9.20;5.60;;;;;;;3.71;91.82;99703.35;447461;1269;143627;-63
2022/01/14 14:59:44;;;;;;;7.00;4.90;;;;;;;3.78;91.72;99718.52;447577;1270;143051;-62
2022/01/14 15:09:53;;;;;;;7.00;5.20;;;;;;;3.82;91.67;99715.10;446669;1268;142363;-65
2022/01/14 15:19:59;;;;;;;4.90;3.90;;;;;;;3.82;91.63;99722.90;447423;1270;143765;-67
2022/01/14 15:30:08;;;;;;;7.60;5.10;;;;;;;3.83;91.68;99747.44;439491;1269;142028;-66
2022/01/14 15:40:21;;;;;;;4.00;3.60;;;;;;;3.67;91.27;99755.77;440818;1268;142813;-65
2022/01/14 15:50:28;;;;;;;3.90;3.30;;;;;;;3.64;91.33;99767.83;440684;1270;182868;-63
2022/01/14 16:00:35;;;;;;;3.10;2.80;;;;;;;3.53;91.00;99769.38;443206;1270;141627;-62
2022/01/14 16:10:42;;;;;;;4.50;3.60;;;;;;;3.50;91.35;99792.66;447442;1270;142429;-61
2022/01/14 16:20:50;;;;;;;6.10;3.60;;;;;;;3.69;90.91;99820.64;447393;1271;142165;-71
2022/01/14 16:30:59;;;;;;;4.10;2.50;;;;;;;3.51;89.80;99825.16;445872;1270;142724;-78
2022/01/14 16:41:07;;;;;;;4.80;2.80;;;;;;;3.26;89.18;99842.02;430520;1270;142851;-61
2022/01/14 16:51:14;;;;;;;2.30;1.80;;;;;;;2.99;89.05;99853.16;446722;1268;141043;-67
2022/01/14 17:01:21;;;;;;;5.30;2.30;;;;;;;2.80;88.37;99864.41;440118;1269;140724;-68
2022/01/14 17:11:29;;;;;;;5.30;2.10;;;;;;;2.67;87.30;99896.08;441717;1270;142531;-68
2022/01/14 17:21:36;;;;;;;8.20;2.10;;;;;;;2.52;85.62;99926.68;438606;1270;140768;-67
2022/01/14 17:31:44;;;;;;;6.00;2.50;;;;;;;2.40;84.79;99940.98;444744;1271;140321;-66
2022/01/14 17:41:53;;;;;;;6.40;3.10;;;;;;;2.17;85.06;99961.73;447394;1269;140467;-65
2022/01/14 17:52:01;;;;;;;5.50;3.40;;;;;;;2.01;85.43;99975.04;446649;1269;141943;-66
2022/01/14 18:02:08;;;;;;;5.60;3.60;;;;;;;1.95;85.50;99986.39;437474;1270;141994;-68
2022/01/14 18:12:30;;;;;;;4.50;2.10;;;;;;;1.81;85.34;100002.58;435029;1270;140480;-66
2022/01/14 18:22:38;;;;;;;6.20;2.70;;;;;;;1.72;84.97;100020.21;441877;1270;140853;-67
2022/01/14 18:32:44;;;;;;;;;;;;;;;1.65;84.59;100030.71;445716;1268;141144;-61
2022/01/14 18:42:51;;;;;;;7.50;2.60;;;;;;;1.52;84.45;100036.83;439601;1270;131069;-62
2022/01/14 18:52:59;;;;;;;16.10;2.70;;;;;;;1.46;84.21;100045.91;439188;1270;141015;-69
2022/01/14 19:03:05;;;;;;;;;;;;;;;1.42;84.01;100053.94;433487;1270;141368;-69
2022/01/14 19:13:15;;;;;;;7.70;2.30;;;;;;;1.34;83.92;100067.88;441653;1270;127964;-70
2022/01/14 19:23:23;;;;;;;9.50;3.10;;;;;;;1.22;84.05;100091.20;447572;1270;140832;-67
2022/01/14 19:33:28;;;;;;;;;;;;;;;1.20;83.98;100101.07;446856;1269;142044;-70
2022/01/14 19:43:36;;;;;;;9.30;2.90;;;;;;;1.10;84.04;100104.67;437747;1270;128751;-71
2022/01/14 19:53:43;;;;;;;9.30;2.70;;;;;;;0.94;84.03;100103.03;447688;1270;141657;-72
2022/01/14 20:03:50;;;;;;;8.00;2.70;;;;;;;0.78;84.28;100117.42;446887;1270;141654;-71
2022/01/14 20:13:56;;;;;;;9.80;3.80;;;;;;;0.71;84.62;100128.39;447496;1270;140870;-69
2022/01/14 20:24:03;;;;;;;7.80;3.30;;;;;;;0.54;84.62;100132.92;447639;1269;142032;-72
2022/01/14 20:34:10;;;;;;;15.00;3.50;;;;;;;0.51;84.94;100137.97;445001;1269;141247;-70
2022/01/14 20:44:19;;;;;;;13.60;4.30;;;;;;;0.42;85.20;100146.54;443204;1270;141678;-69
2022/01/14 20:54:26;;;;;;;12.60;4.40;;;;;;;0.34;85.54;100155.94;446773;1270;142482;-70
2022/01/14 21:04:33;;;;;;;8.50;3.00;;;;;;;0.28;85.82;100168.91;447464;1269;141117;-70
2022/01/14 21:14:42;;;;;;;11.00;3.70;;;;;;;0.21;85.93;100177.78;447368;1270;182297;-70
2022/01/14 21:24:49;;;;;;;12.00;4.10;;;;;;;0.09;85.89;100187.75;436281;1270;140899;-70
2022/01/14 21:34:55;;;;;;;11.30;2.90;;;;;;;-0.05;86.07;100196.49;433611;1270;140796;-69
2022/01/14 21:45:00;;;;;;;9.40;3.30;;;;;;;-0.24;86.32;100212.17;435660;1268;141754;-70
2022/01/14 21:55:09;;;;;;;16.60;4.70;;;;;;;-0.46;86.19;100213.06;444206;1270;142474;-70
2022/01/14 22:05:15;;;;;;;16.50;5.30;;;;;;;-0.59;86.44;100215.23;447607;1269;142651;-71
2022/01/14 22:15:27;;;;;;;9.10;3.60;;;;;;;-0.73;86.56;100224.80;443701;1270;141371;-70
2022/01/14 22:25:34;;;;;;;14.40;4.30;;;;;;;-0.80;86.65;100228.27;447465;1270;141980;-70
2022/01/14 22:35:40;;;;;;;15.20;5.00;;;;;;;-0.92;86.66;100245.38;444903;1270;143447;-70
2022/01/14 22:45:50;;;;;;;11.10;4.20;;;;;;;-0.99;86.67;100251.96;445520;1270;142886;-71
2022/01/14 22:55:57;;;;;;;9.70;4.40;;;;;;;-1.05;86.75;100242.89;447534;1269;141902;-71
2022/01/14 23:06:03;;;;;;;13.90;5.20;;;;;;;-1.23;87.00;100247.09;447447;1270;141280;-70
2022/01/14 23:16:09;;;;;;;14.10;4.10;;;;;;;-1.35;87.11;100261.06;441954;1271;143238;-70
2022/01/14 23:26:15;;;;;;;12.60;4.20;;;;;;;-1.39;87.43;100262.63;447466;1271;142162;-71
2022/01/14 23:36:21;;;;;;;13.00;3.50;;;;;;;-1.36;87.53;100246.64;446639;1271;143124;-70
2022/01/14 23:46:53;;;;;;;17.70;4.30;;;;;;;-1.37;87.70;100234.27;447276;1270;216976;-71
2022/01/14 23:56:58;;;;;;;8.80;4.00;;;;;;;-1.36;87.37;100228.77;447438;1270;142236;-65
